Cruger, Mississippi
Current Conditions -  °F | °C
As of 9:53 PM on Sunday 21 Dec 2014 (Local Time) from KGWO Reporting Station
Broken Clouds Broken Clouds  
Wind Chill: 47°   Ceiling: 800
Heat Index: 49°   Visibility: 10mi
Dew Point: 45°   Wind: 5mph
Humidity: 86%   Direction: NA
Pressure: 29.97"   Gusts: NA
Location:  33.32°N, 90.23°W
Report Text: KGWO 220353Z AUTO VRB04KT 10SM BKN008 09/07 A2997 RMK AO2 SLP147 T00940072
Loading
Personal Weather Stations






























Interactive Weather Map New forecast layout! Learn more

10-Day Weather Forecast

Advertisements
Track Severe Weather on mobile